Terminal Aerodrome Forecast
Issued by NWS

Home | Current Version | Previous Version | Text Only | Print | Product List | Glossary On
Versions: 1 2 3 4 5 6 7 8 9 10 11 12 13 14 15 16 17 18 19
262
FTUS44 KLZK 241730
TAFLLQ
TAF
KLLQ 241730Z 2418/2518 30011G18KT P6SM SCT030 BKN060
     FM242000 28009G16KT P6SM VCSH OVC040
     FM250000 27005KT P6SM SCT100 BKN250
     FM250700 27003KT P6SM SKC=

USA.gov is the U.S. government's official web portal to all federal, state and local government web resources and services.